Ocean Hope — 3EWD6 — position and weather

sailwx.info

Track history (hours):
 
Tides and Currents Weather Stations Pressure Air Temp Water Temp Dewpoint Dewpoint Depression Visibility Wind Speed Wind Dir Waves Ship Positions

Ocean Hope

Last reported at 2018-Jul-18 12:00 UTC. Time now 2018-Jul-21 10:59 UTC.
Position N 35°34' E 031°36'.

Length 181 m; draft 9.5 m.

Type: Cargo ship. MMSI: 373402000.

Date/timePositionNaut miles runAvg speedWind from/ knotsBaromVisibWave heightAir tempDewpointWater temp
2018-Jul-18 12:00N 35°34' E 031°36'612.9
2018-Jul-18 11:30N 35°33' E 031°29'  
2018-Jul-12 14:07N 35°59' W 005°14'216.2
2018-Jul-12 14:01N 35°59' W 005°16'815.7
2018-Jul-12 13:31N 35°58' W 005°26'20512.5
2018-Jul-11 21:09N 36°47' W 009°33'513.2
2018-Jul-11 20:48N 36°52' W 009°34'413.3
2018-Jul-11 20:28N 36°56' W 009°36'913.2
2018-Jul-11 19:46N 37°05' W 009°38'613.4
2018-Jul-11 19:17N 37°12' W 009°40'2013.4
2018-Jul-11 17:49N 37°31' W 009°45'913.2
2018-Jul-11 17:06N 37°40' W 009°48'113.2
2018-Jul-11 17:00N 37°41' W 009°48'1813.1
2018-Jul-11 15:37N 37°59' W 009°54'113.0
2018-Jul-11 15:30N 38°01' W 009°54'712.9
2018-Jul-11 14:58N 38°07' W 009°56'712.5
2018-Jul-11 14:24N 38°14' W 009°58'612.6
2018-Jul-11 13:55N 38°20' W 009°59'512.9
2018-Jul-11 13:30N 38°25' W 010°01'713.3
2018-Jul-11 13:00N 38°32' W 010°03'1112.8
2018-Jul-11 12:10N 38°42' W 010°06'212.5
2018-Jul-11 12:00N 38°44' W 010°06'612.8
2018-Jul-11 11:30N 38°51' W 010°06'612.6
2018-Jul-11 11:00N 38°57' W 010°06'612.6
2018-Jul-11 10:30N 39°03' W 010°06'612.5
2018-Jul-11 10:00N 39°10' W 010°06'712.9
2018-Jul-11 09:30N 39°16' W 010°06'613.1
2018-Jul-11 09:00N 39°23' W 010°06'712.8
2018-Jul-11 08:28N 39°30' W 010°06'49712.6
2018-Jul-09 16:58N 47°27' W 006°57'1513.7
2018-Jul-09 15:53N 47°40' W 006°47'913.7
2018-Jul-09 15:13N 47°48' W 006°40'313.3
2018-Jul-09 15:00N 47°50' W 006°39'1114.0
2018-Jul-09 14:14N 48°00' W 006°31'2112.6
2018-Jul-09 12:33N 48°19' W 006°16'812.1
2018-Jul-09 11:51N 48°26' W 006°10'411.9
2018-Jul-09 11:30N 48°30' W 006°07'611.8
2018-Jul-09 10:59N 48°35' W 006°03'611.9
2018-Jul-09 10:30N 48°40' W 005°59'611.9
2018-Jul-09 10:00N 48°46' W 005°54'612.3
2018-Jul-09 09:30N 48°51' W 005°50'611.8
2018-Jul-09 09:00N 48°56' W 005°45'612.6
2018-Jul-09 08:30N 48°59' W 005°37'612.9
2018-Jul-09 08:00N 49°02' W 005°28'612.9
2018-Jul-09 07:30N 49°05' W 005°20'713.5
2018-Jul-09 07:00N 49°09' W 005°11'713.6
2018-Jul-09 06:29N 49°12' W 005°01'613.4
2018-Jul-09 06:00N 49°16' W 004°53'713.4
2018-Jul-09 05:30N 49°19' W 004°44'713.3
2018-Jul-09 05:00N 49°22' W 004°35'713.0
2018-Jul-09 04:30N 49°25' W 004°26'612.9
2018-Jul-09 04:00N 49°28' W 004°17'612.8
2018-Jul-09 03:30N 49°31' W 004°09'812.5
2018-Jul-09 02:54N 49°35' W 003°59'1512.1
2018-Jul-09 01:38N 49°43' W 003°39'1012.1
2018-Jul-09 00:50N 49°49' W 003°26'712.3
2018-Jul-09 00:14N 49°51' W 003°16'412.8
2018-Jul-08 23:55N 49°53' W 003°10'513.1
2018-Jul-08 23:30N 49°56' W 003°03'713.7
2018-Jul-08 23:00N 49°60' W 002°54'713.8
2018-Jul-08 22:29N 50°02' W 002°44'3614.5
2018-Jul-08 19:59N 50°11' W 001°49'2113.2
2018-Jul-08 18:24N 50°17' W 001°17'512.3
2018-Jul-08 18:00N 50°18' W 001°10'611.6
2018-Jul-08 17:30N 50°20' W 001°01'611.2
2018-Jul-08 17:00N 50°21' W 000°53'510.8
2018-Jul-08 16:30N 50°23' W 000°45'510.7
2018-Jul-08 16:00N 50°24' W 000°37'710.8
2018-Jul-08 15:21N 50°26' W 000°26'411.2
2018-Jul-08 15:00N 50°27' W 000°20'611.6
2018-Jul-08 14:30N 50°29' W 000°11'612.1
2018-Jul-08 14:00N 50°30' W 000°02'612.5
2018-Jul-08 13:30N 50°32' E 000°07'712.9
2018-Jul-08 13:00N 50°34' E 000°17'713.4
2018-Jul-08 12:30N 50°36' E 000°27'713.5
2018-Jul-08 12:00N 50°38' E 000°37'  
Track history (hours):
 
Tides and Currents Weather Stations Pressure Air Temp Water Temp Dewpoint Dewpoint Depression Visibility Wind Speed Wind Dir Waves Ship Positions

Ocean Hope

Last reported at 2018-Jul-18 12:00 UTC. Time now 2018-Jul-21 10:59 UTC.
Position N 35°34' E 031°36'.

Length 181 m; draft 9.5 m.

Type: Cargo ship. MMSI: 373402000.

Date/timePositionNaut miles runAvg speedWind from/ knotsBaromVisibWave heightAir tempDewpointWater temp
2018-Jul-18 12:00N 35°34' E 031°36'612.9
2018-Jul-18 11:30N 35°33' E 031°29'  
2018-Jul-12 14:07N 35°59' W 005°14'216.2
2018-Jul-12 14:01N 35°59' W 005°16'815.7
2018-Jul-12 13:31N 35°58' W 005°26'20512.5
2018-Jul-11 21:09N 36°47' W 009°33'513.2
2018-Jul-11 20:48N 36°52' W 009°34'413.3
2018-Jul-11 20:28N 36°56' W 009°36'913.2
2018-Jul-11 19:46N 37°05' W 009°38'613.4
2018-Jul-11 19:17N 37°12' W 009°40'2013.4
2018-Jul-11 17:49N 37°31' W 009°45'913.2
2018-Jul-11 17:06N 37°40' W 009°48'113.2
2018-Jul-11 17:00N 37°41' W 009°48'1813.1
2018-Jul-11 15:37N 37°59' W 009°54'113.0
2018-Jul-11 15:30N 38°01' W 009°54'712.9
2018-Jul-11 14:58N 38°07' W 009°56'712.5
2018-Jul-11 14:24N 38°14' W 009°58'612.6
2018-Jul-11 13:55N 38°20' W 009°59'512.9
2018-Jul-11 13:30N 38°25' W 010°01'713.3
2018-Jul-11 13:00N 38°32' W 010°03'1112.8
2018-Jul-11 12:10N 38°42' W 010°06'212.5
2018-Jul-11 12:00N 38°44' W 010°06'612.8
2018-Jul-11 11:30N 38°51' W 010°06'612.6
2018-Jul-11 11:00N 38°57' W 010°06'612.6
2018-Jul-11 10:30N 39°03' W 010°06'612.5
2018-Jul-11 10:00N 39°10' W 010°06'712.9
2018-Jul-11 09:30N 39°16' W 010°06'613.1
2018-Jul-11 09:00N 39°23' W 010°06'712.8
2018-Jul-11 08:28N 39°30' W 010°06'49712.6
2018-Jul-09 16:58N 47°27' W 006°57'1513.7
2018-Jul-09 15:53N 47°40' W 006°47'913.7
2018-Jul-09 15:13N 47°48' W 006°40'313.3
2018-Jul-09 15:00N 47°50' W 006°39'1114.0
2018-Jul-09 14:14N 48°00' W 006°31'2112.6
2018-Jul-09 12:33N 48°19' W 006°16'812.1
2018-Jul-09 11:51N 48°26' W 006°10'411.9
2018-Jul-09 11:30N 48°30' W 006°07'611.8
2018-Jul-09 10:59N 48°35' W 006°03'611.9
2018-Jul-09 10:30N 48°40' W 005°59'611.9
2018-Jul-09 10:00N 48°46' W 005°54'612.3
2018-Jul-09 09:30N 48°51' W 005°50'611.8
2018-Jul-09 09:00N 48°56' W 005°45'612.6
2018-Jul-09 08:30N 48°59' W 005°37'612.9
2018-Jul-09 08:00N 49°02' W 005°28'612.9
2018-Jul-09 07:30N 49°05' W 005°20'713.5
2018-Jul-09 07:00N 49°09' W 005°11'713.6
2018-Jul-09 06:29N 49°12' W 005°01'613.4
2018-Jul-09 06:00N 49°16' W 004°53'713.4
2018-Jul-09 05:30N 49°19' W 004°44'713.3
2018-Jul-09 05:00N 49°22' W 004°35'713.0
2018-Jul-09 04:30N 49°25' W 004°26'612.9
2018-Jul-09 04:00N 49°28' W 004°17'612.8
2018-Jul-09 03:30N 49°31' W 004°09'812.5
2018-Jul-09 02:54N 49°35' W 003°59'1512.1
2018-Jul-09 01:38N 49°43' W 003°39'1012.1
2018-Jul-09 00:50N 49°49' W 003°26'712.3
2018-Jul-09 00:14N 49°51' W 003°16'412.8
2018-Jul-08 23:55N 49°53' W 003°10'513.1
2018-Jul-08 23:30N 49°56' W 003°03'713.7
2018-Jul-08 23:00N 49°60' W 002°54'713.8
2018-Jul-08 22:29N 50°02' W 002°44'3614.5
2018-Jul-08 19:59N 50°11' W 001°49'2113.2
2018-Jul-08 18:24N 50°17' W 001°17'512.3
2018-Jul-08 18:00N 50°18' W 001°10'611.6
2018-Jul-08 17:30N 50°20' W 001°01'611.2
2018-Jul-08 17:00N 50°21' W 000°53'510.8
2018-Jul-08 16:30N 50°23' W 000°45'510.7
2018-Jul-08 16:00N 50°24' W 000°37'710.8
2018-Jul-08 15:21N 50°26' W 000°26'411.2
2018-Jul-08 15:00N 50°27' W 000°20'611.6
2018-Jul-08 14:30N 50°29' W 000°11'612.1
2018-Jul-08 14:00N 50°30' W 000°02'612.5
2018-Jul-08 13:30N 50°32' E 000°07'712.9
2018-Jul-08 13:00N 50°34' E 000°17'713.4
2018-Jul-08 12:30N 50°36' E 000°27'713.5
2018-Jul-08 12:00N 50°38' E 000°37'  

Dump ship's entire track history